sensor_id;sensor_type;location;lat;lon;timestamp;temperature;humidity
27162;DHT22;54464;50.558;9.704;2023-11-21T00:00:57;7.60;99.90
27162;DHT22;54464;50.558;9.704;2023-11-21T00:03:24;7.70;99.90
27162;DHT22;54464;50.558;9.704;2023-11-21T00:05:49;7.60;99.90
27162;DHT22;54464;50.558;9.704;2023-11-21T00:08:15;7.70;99.90
27162;DHT22;54464;50.558;9.704;2023-11-21T00:10:40;7.80;99.90
27162;DHT22;54464;50.558;9.704;2023-11-21T00:13:06;7.80;99.90
27162;DHT22;54464;50.558;9.704;2023-11-21T00:15:33;7.80;99.90
27162;DHT22;54464;50.558;9.704;2023-11-21T00:18:00;7.90;99.90
27162;DHT22;54464;50.558;9.704;2023-11-21T00:20:25;8.00;99.90
27162;DHT22;54464;50.558;9.704;2023-11-21T00:22:51;8.00;99.90
27162;DHT22;54464;50.558;9.704;2023-11-21T00:25:17;8.00;99.90
27162;DHT22;54464;50.558;9.704;2023-11-21T00:27:43;8.00;99.90
27162;DHT22;54464;50.558;9.704;2023-11-21T00:30:09;8.00;99.90
27162;DHT22;54464;50.558;9.704;2023-11-21T00:32:37;8.10;99.90
27162;DHT22;54464;50.558;9.704;2023-11-21T00:35:03;8.10;99.90
27162;DHT22;54464;50.558;9.704;2023-11-21T00:37:29;8.10;99.90
27162;DHT22;54464;50.558;9.704;2023-11-21T00:39:56;8.10;99.90
27162;DHT22;54464;50.558;9.704;2023-11-21T00:42:21;8.10;99.90
27162;DHT22;54464;50.558;9.704;2023-11-21T00:44:48;8.10;99.90
27162;DHT22;54464;50.558;9.704;2023-11-21T00:47:13;8.10;99.90
27162;DHT22;54464;50.558;9.704;2023-11-21T00:49:39;7.90;99.90
27162;DHT22;54464;50.558;9.704;2023-11-21T00:52:05;7.90;99.90
27162;DHT22;54464;50.558;9.704;2023-11-21T00:54:30;7.90;99.90
27162;DHT22;54464;50.558;9.704;2023-11-21T00:56:56;7.90;99.90
27162;DHT22;54464;50.558;9.704;2023-11-21T00:59:22;7.90;99.90
27162;DHT22;54464;50.558;9.704;2023-11-21T01:01:48;8.00;99.90
27162;DHT22;54464;50.558;9.704;2023-11-21T01:04:14;8.10;99.90
27162;DHT22;54464;50.558;9.704;2023-11-21T01:06:39;8.10;99.90
27162;DHT22;54464;50.558;9.704;2023-11-21T01:09:05;8.10;99.90
27162;DHT22;54464;50.558;9.704;2023-11-21T01:11:34;8.10;99.90
27162;DHT22;54464;50.558;9.704;2023-11-21T01:14:03;8.10;99.90
27162;DHT22;54464;50.558;9.704;2023-11-21T01:16:29;8.10;99.90
27162;DHT22;54464;50.558;9.704;2023-11-21T01:18:54;8.10;99.90
27162;DHT22;54464;50.558;9.704;2023-11-21T01:21:20;8.10;99.90
27162;DHT22;54464;50.558;9.704;2023-11-21T01:23:45;8.00;99.90
27162;DHT22;54464;50.558;9.704;2023-11-21T01:26:12;8.00;99.90
27162;DHT22;54464;50.558;9.704;2023-11-21T01:28:38;8.00;99.90
27162;DHT22;54464;50.558;9.704;2023-11-21T01:31:04;8.00;99.90
27162;DHT22;54464;50.558;9.704;2023-11-21T01:33:29;8.00;99.90
27162;DHT22;54464;50.558;9.704;2023-11-21T01:35:55;7.90;99.90
27162;DHT22;54464;50.558;9.704;2023-11-21T01:38:21;7.90;99.90
27162;DHT22;54464;50.558;9.704;2023-11-21T01:40:47;7.90;99.90
27162;DHT22;54464;50.558;9.704;2023-11-21T01:43:13;7.90;99.90
27162;DHT22;54464;50.558;9.704;2023-11-21T01:45:38;7.90;99.90
27162;DHT22;54464;50.558;9.704;2023-11-21T01:48:04;7.90;99.90
27162;DHT22;54464;50.558;9.704;2023-11-21T01:50:32;7.80;99.90
27162;DHT22;54464;50.558;9.704;2023-11-21T01:52:59;7.80;99.90
27162;DHT22;54464;50.558;9.704;2023-11-21T01:55:25;7.80;99.90
27162;DHT22;54464;50.558;9.704;2023-11-21T01:57:52;7.80;99.90
27162;DHT22;54464;50.558;9.704;2023-11-21T02:00:18;7.90;99.90
27162;DHT22;54464;50.558;9.704;2023-11-21T02:02:48;8.00;99.90
27162;DHT22;54464;50.558;9.704;2023-11-21T02:05:18;8.00;99.90
27162;DHT22;54464;50.558;9.704;2023-11-21T02:07:44;8.10;99.90
27162;DHT22;54464;50.558;9.704;2023-11-21T02:10:10;8.10;99.90
27162;DHT22;54464;50.558;9.704;2023-11-21T02:12:40;8.00;99.90
27162;DHT22;54464;50.558;9.704;2023-11-21T02:15:06;8.00;99.90
27162;DHT22;54464;50.558;9.704;2023-11-21T02:17:43;8.10;99.90
27162;DHT22;54464;50.558;9.704;2023-11-21T02:20:12;8.20;99.90
27162;DHT22;54464;50.558;9.704;2023-11-21T02:22:41;8.10;99.90
27162;DHT22;54464;50.558;9.704;2023-11-21T02:25:08;8.10;99.90
27162;DHT22;54464;50.558;9.704;2023-11-21T02:27:34;8.10;99.90
27162;DHT22;54464;50.558;9.704;2023-11-21T02:29:59;8.00;99.90
27162;DHT22;54464;50.558;9.704;2023-11-21T02:32:26;8.00;99.90
27162;DHT22;54464;50.558;9.704;2023-11-21T02:34:52;8.00;99.90
27162;DHT22;54464;50.558;9.704;2023-11-21T02:37:19;7.90;99.90
27162;DHT22;54464;50.558;9.704;2023-11-21T02:39:45;7.90;99.90
27162;DHT22;54464;50.558;9.704;2023-11-21T02:42:11;7.90;99.90
27162;DHT22;54464;50.558;9.704;2023-11-21T02:44:36;7.90;99.90
27162;DHT22;54464;50.558;9.704;2023-11-21T02:47:02;7.90;99.90
27162;DHT22;54464;50.558;9.704;2023-11-21T02:49:28;7.90;99.90
27162;DHT22;54464;50.558;9.704;2023-11-21T02:51:54;7.90;99.90
27162;DHT22;54464;50.558;9.704;2023-11-21T02:54:20;8.00;99.90
27162;DHT22;54464;50.558;9.704;2023-11-21T02:56:47;8.00;99.90
27162;DHT22;54464;50.558;9.704;2023-11-21T02:59:13;8.00;99.90
27162;DHT22;54464;50.558;9.704;2023-11-21T03:01:39;7.90;99.90
27162;DHT22;54464;50.558;9.704;2023-11-21T03:04:04;8.00;99.90
27162;DHT22;54464;50.558;9.704;2023-11-21T03:06:30;7.90;99.90
27162;DHT22;54464;50.558;9.704;2023-11-21T03:08:56;7.90;99.90
27162;DHT22;54464;50.558;9.704;2023-11-21T03:11:21;7.70;99.90
27162;DHT22;54464;50.558;9.704;2023-11-21T03:13:47;7.70;99.90
27162;DHT22;54464;50.558;9.704;2023-11-21T03:16:12;7.80;99.90
27162;DHT22;54464;50.558;9.704;2023-11-21T03:18:39;7.80;99.90
27162;DHT22;54464;50.558;9.704;2023-11-21T03:21:05;7.90;99.90
27162;DHT22;54464;50.558;9.704;2023-11-21T03:23:31;7.90;99.90
27162;DHT22;54464;50.558;9.704;2023-11-21T03:25:57;7.90;99.90
27162;DHT22;54464;50.558;9.704;2023-11-21T03:28:23;7.90;99.90
27162;DHT22;54464;50.558;9.704;2023-11-21T03:30:49;7.70;99.90
27162;DHT22;54464;50.558;9.704;2023-11-21T03:33:14;7.60;99.90
27162;DHT22;54464;50.558;9.704;2023-11-21T03:35:40;7.60;99.90
27162;DHT22;54464;50.558;9.704;2023-11-21T03:38:07;7.70;99.90
27162;DHT22;54464;50.558;9.704;2023-11-21T03:40:36;7.70;99.90
27162;DHT22;54464;50.558;9.704;2023-11-21T03:43:05;7.70;99.90
27162;DHT22;54464;50.558;9.704;2023-11-21T03:45:31;7.70;99.90
27162;DHT22;54464;50.558;9.704;2023-11-21T03:47:57;7.70;99.90
27162;DHT22;54464;50.558;9.704;2023-11-21T03:50:22;7.70;99.90
27162;DHT22;54464;50.558;9.704;2023-11-21T03:52:48;7.60;99.90
27162;DHT22;54464;50.558;9.704;2023-11-21T03:55:13;7.60;99.90
27162;DHT22;54464;50.558;9.704;2023-11-21T03:57:40;7.70;99.90
27162;DHT22;54464;50.558;9.704;2023-11-21T04:00:06;7.70;99.90
27162;DHT22;54464;50.558;9.704;2023-11-21T04:02:34;7.80;99.90
27162;DHT22;54464;50.558;9.704;2023-11-21T04:05:00;7.80;99.90
27162;DHT22;54464;50.558;9.704;2023-11-21T04:07:26;7.80;99.90
27162;DHT22;54464;50.558;9.704;2023-11-21T04:09:52;7.80;99.90
27162;DHT22;54464;50.558;9.704;2023-11-21T04:12:19;7.80;99.90
27162;DHT22;54464;50.558;9.704;2023-11-21T04:14:44;7.70;99.90
27162;DHT22;54464;50.558;9.704;2023-11-21T04:17:10;7.80;99.90
27162;DHT22;54464;50.558;9.704;2023-11-21T04:19:35;7.80;99.90
27162;DHT22;54464;50.558;9.704;2023-11-21T04:22:01;7.80;99.90
27162;DHT22;54464;50.558;9.704;2023-11-21T04:24:26;7.80;99.90
27162;DHT22;54464;50.558;9.704;2023-11-21T04:26:52;7.80;99.90
27162;DHT22;54464;50.558;9.704;2023-11-21T04:29:18;7.80;99.90
27162;DHT22;54464;50.558;9.704;2023-11-21T04:31:44;7.80;99.90
27162;DHT22;54464;50.558;9.704;2023-11-21T04:34:09;7.80;99.90
27162;DHT22;54464;50.558;9.704;2023-11-21T04:36:35;7.80;99.90
27162;DHT22;54464;50.558;9.704;2023-11-21T04:39:01;7.80;99.90
27162;DHT22;54464;50.558;9.704;2023-11-21T04:41:26;7.80;99.90
27162;DHT22;54464;50.558;9.704;2023-11-21T04:43:52;7.80;99.90
27162;DHT22;54464;50.558;9.704;2023-11-21T04:46:17;7.80;99.90
27162;DHT22;54464;50.558;9.704;2023-11-21T04:48:43;7.80;99.90
27162;DHT22;54464;50.558;9.704;2023-11-21T04:51:09;7.70;99.90
27162;DHT22;54464;50.558;9.704;2023-11-21T04:53:37;7.70;99.90
27162;DHT22;54464;50.558;9.704;2023-11-21T04:56:02;7.80;99.90
27162;DHT22;54464;50.558;9.704;2023-11-21T04:58:28;7.70;99.90
27162;DHT22;54464;50.558;9.704;2023-11-21T05:00:54;7.70;99.90
27162;DHT22;54464;50.558;9.704;2023-11-21T05:03:19;7.70;99.90
27162;DHT22;54464;50.558;9.704;2023-11-21T05:05:45;7.70;99.90
27162;DHT22;54464;50.558;9.704;2023-11-21T05:08:11;7.70;99.90
27162;DHT22;54464;50.558;9.704;2023-11-21T05:10:37;7.70;99.90
27162;DHT22;54464;50.558;9.704;2023-11-21T05:13:04;7.80;99.90
27162;DHT22;54464;50.558;9.704;2023-11-21T05:15:35;7.70;99.90
27162;DHT22;54464;50.558;9.704;2023-11-21T05:18:00;7.70;99.90
27162;DHT22;54464;50.558;9.704;2023-11-21T05:20:26;7.60;99.90
27162;DHT22;54464;50.558;9.704;2023-11-21T05:22:51;7.70;99.90
27162;DHT22;54464;50.558;9.704;2023-11-21T05:25:17;7.70;99.90
27162;DHT22;54464;50.558;9.704;2023-11-21T05:27:46;7.70;99.90
27162;DHT22;54464;50.558;9.704;2023-11-21T05:30:13;7.60;99.90
27162;DHT22;54464;50.558;9.704;2023-11-21T05:32:40;7.60;99.90
27162;DHT22;54464;50.558;9.704;2023-11-21T05:35:08;7.60;99.90
27162;DHT22;54464;50.558;9.704;2023-11-21T05:37:37;7.60;99.90
27162;DHT22;54464;50.558;9.704;2023-11-21T05:40:06;7.60;99.90
27162;DHT22;54464;50.558;9.704;2023-11-21T05:42:35;7.60;99.90
27162;DHT22;54464;50.558;9.704;2023-11-21T05:45:01;7.50;99.90
27162;DHT22;54464;50.558;9.704;2023-11-21T05:47:44;7.50;99.90
27162;DHT22;54464;50.558;9.704;2023-11-21T05:50:12;7.50;99.90
27162;DHT22;54464;50.558;9.704;2023-11-21T05:52:40;7.50;99.90
27162;DHT22;54464;50.558;9.704;2023-11-21T05:55:06;7.50;99.90
27162;DHT22;54464;50.558;9.704;2023-11-21T05:57:33;7.50;99.90
27162;DHT22;54464;50.558;9.704;2023-11-21T06:00:08;7.50;99.90
27162;DHT22;54464;50.558;9.704;2023-11-21T06:02:41;7.40;99.90
27162;DHT22;54464;50.558;9.704;2023-11-21T06:05:07;7.30;99.90
27162;DHT22;54464;50.558;9.704;2023-11-21T06:07:33;7.40;99.90
27162;DHT22;54464;50.558;9.704;2023-11-21T06:10:02;7.40;99.90
27162;DHT22;54464;50.558;9.704;2023-11-21T06:12:31;7.40;99.90
27162;DHT22;54464;50.558;9.704;2023-11-21T06:15:03;7.50;99.90
27162;DHT22;54464;50.558;9.704;2023-11-21T06:17:37;7.40;99.90
27162;DHT22;54464;50.558;9.704;2023-11-21T06:20:03;7.50;99.90
27162;DHT22;54464;50.558;9.704;2023-11-21T06:22:43;7.50;99.90
27162;DHT22;54464;50.558;9.704;2023-11-21T06:25:10;7.50;99.90
27162;DHT22;54464;50.558;9.704;2023-11-21T06:27:41;7.60;99.90
27162;DHT22;54464;50.558;9.704;2023-11-21T06:30:08;7.50;99.90
27162;DHT22;54464;50.558;9.704;2023-11-21T06:32:35;7.50;99.90
27162;DHT22;54464;50.558;9.704;2023-11-21T06:35:04;7.40;99.90
27162;DHT22;54464;50.558;9.704;2023-11-21T06:37:31;7.40;99.90
27162;DHT22;54464;50.558;9.704;2023-11-21T06:39:58;7.40;99.90
27162;DHT22;54464;50.558;9.704;2023-11-21T06:42:24;7.30;99.90
27162;DHT22;54464;50.558;9.704;2023-11-21T06:44:50;7.30;99.90
27162;DHT22;54464;50.558;9.704;2023-11-21T06:47:20;7.30;99.90
27162;DHT22;54464;50.558;9.704;2023-11-21T06:49:46;7.40;99.90
27162;DHT22;54464;50.558;9.704;2023-11-21T06:52:13;7.50;99.90
27162;DHT22;54464;50.558;9.704;2023-11-21T06:54:39;7.50;99.90
27162;DHT22;54464;50.558;9.704;2023-11-21T06:57:05;7.40;99.90
27162;DHT22;54464;50.558;9.704;2023-11-21T06:59:30;7.40;99.90
27162;DHT22;54464;50.558;9.704;2023-11-21T07:01:56;7.50;99.90
27162;DHT22;54464;50.558;9.704;2023-11-21T07:04:21;7.50;99.90
27162;DHT22;54464;50.558;9.704;2023-11-21T07:06:47;7.40;99.90
27162;DHT22;54464;50.558;9.704;2023-11-21T07:09:13;7.40;99.90
27162;DHT22;54464;50.558;9.704;2023-11-21T07:11:38;7.50;99.90
27162;DHT22;54464;50.558;9.704;2023-11-21T07:14:04;7.50;99.90
27162;DHT22;54464;50.558;9.704;2023-11-21T07:16:36;7.50;99.90
27162;DHT22;54464;50.558;9.704;2023-11-21T07:19:06;7.50;99.90
27162;DHT22;54464;50.558;9.704;2023-11-21T07:21:32;7.50;99.90
27162;DHT22;54464;50.558;9.704;2023-11-21T07:23:59;7.40;99.90
27162;DHT22;54464;50.558;9.704;2023-11-21T07:26:26;7.40;99.90
27162;DHT22;54464;50.558;9.704;2023-11-21T07:28:52;7.30;99.90
27162;DHT22;54464;50.558;9.704;2023-11-21T07:31:17;7.20;99.90
27162;DHT22;54464;50.558;9.704;2023-11-21T07:33:43;7.10;99.90
27162;DHT22;54464;50.558;9.704;2023-11-21T07:36:08;6.80;99.90
27162;DHT22;54464;50.558;9.704;2023-11-21T07:38:35;6.80;99.90
27162;DHT22;54464;50.558;9.704;2023-11-21T07:41:01;6.80;99.90
27162;DHT22;54464;50.558;9.704;2023-11-21T07:43:27;7.10;99.90
27162;DHT22;54464;50.558;9.704;2023-11-21T07:45:55;7.20;99.90
27162;DHT22;54464;50.558;9.704;2023-11-21T07:48:20;7.00;99.90
27162;DHT22;54464;50.558;9.704;2023-11-21T07:50:46;7.00;99.90
27162;DHT22;54464;50.558;9.704;2023-11-21T07:53:13;7.10;99.90
27162;DHT22;54464;50.558;9.704;2023-11-21T07:55:38;7.30;99.90
27162;DHT22;54464;50.558;9.704;2023-11-21T07:58:04;7.40;99.90
27162;DHT22;54464;50.558;9.704;2023-11-21T08:00:30;7.60;99.90
27162;DHT22;54464;50.558;9.704;2023-11-21T08:02:56;7.50;99.90
27162;DHT22;54464;50.558;9.704;2023-11-21T08:05:22;7.50;99.90
27162;DHT22;54464;50.558;9.704;2023-11-21T08:07:47;7.50;99.90
27162;DHT22;54464;50.558;9.704;2023-11-21T08:10:13;7.50;99.90
27162;DHT22;54464;50.558;9.704;2023-11-21T08:12:39;7.50;99.90
27162;DHT22;54464;50.558;9.704;2023-11-21T08:15:05;7.60;99.90
27162;DHT22;54464;50.558;9.704;2023-11-21T08:17:31;7.70;99.90
27162;DHT22;54464;50.558;9.704;2023-11-21T08:19:58;7.70;99.90
27162;DHT22;54464;50.558;9.704;2023-11-21T08:22:23;7.80;99.90
27162;DHT22;54464;50.558;9.704;2023-11-21T08:24:50;8.00;99.90
27162;DHT22;54464;50.558;9.704;2023-11-21T08:27:15;8.00;99.90
27162;DHT22;54464;50.558;9.704;2023-11-21T08:29:42;8.00;99.90
27162;DHT22;54464;50.558;9.704;2023-11-21T08:32:08;7.90;99.90
27162;DHT22;54464;50.558;9.704;2023-11-21T08:34:35;7.90;99.90
27162;DHT22;54464;50.558;9.704;2023-11-21T08:37:01;8.00;99.90
27162;DHT22;54464;50.558;9.704;2023-11-21T08:39:26;8.20;99.90
27162;DHT22;54464;50.558;9.704;2023-11-21T08:41:52;8.30;99.90
27162;DHT22;54464;50.558;9.704;2023-11-21T08:44:17;8.30;99.90
27162;DHT22;54464;50.558;9.704;2023-11-21T08:46:44;8.40;99.90
27162;DHT22;54464;50.558;9.704;2023-11-21T08:49:11;8.40;99.90
27162;DHT22;54464;50.558;9.704;2023-11-21T08:51:38;8.20;99.90
27162;DHT22;54464;50.558;9.704;2023-11-21T08:54:04;8.00;99.90
27162;DHT22;54464;50.558;9.704;2023-11-21T08:56:34;8.10;99.90
27162;DHT22;54464;50.558;9.704;2023-11-21T08:58:59;8.10;99.90
27162;DHT22;54464;50.558;9.704;2023-11-21T09:01:31;8.10;99.90
27162;DHT22;54464;50.558;9.704;2023-11-21T09:03:57;8.10;99.90
27162;DHT22;54464;50.558;9.704;2023-11-21T09:06:24;8.10;99.90
27162;DHT22;54464;50.558;9.704;2023-11-21T09:08:50;8.20;99.90
27162;DHT22;54464;50.558;9.704;2023-11-21T09:11:16;8.20;99.90
27162;DHT22;54464;50.558;9.704;2023-11-21T09:13:42;8.20;99.90
27162;DHT22;54464;50.558;9.704;2023-11-21T09:16:08;8.20;99.90
27162;DHT22;54464;50.558;9.704;2023-11-21T09:18:33;8.30;99.90
27162;DHT22;54464;50.558;9.704;2023-11-21T09:20:59;8.10;99.90
27162;DHT22;54464;50.558;9.704;2023-11-21T09:23:25;8.10;99.90
27162;DHT22;54464;50.558;9.704;2023-11-21T09:25:51;8.20;99.90
27162;DHT22;54464;50.558;9.704;2023-11-21T09:28:17;8.20;99.90
27162;DHT22;54464;50.558;9.704;2023-11-21T09:30:43;8.20;99.90
27162;DHT22;54464;50.558;9.704;2023-11-21T09:33:09;8.20;99.90
27162;DHT22;54464;50.558;9.704;2023-11-21T09:35:37;8.20;99.90
27162;DHT22;54464;50.558;9.704;2023-11-21T09:38:03;8.40;99.90
27162;DHT22;54464;50.558;9.704;2023-11-21T09:40:35;8.40;99.90
27162;DHT22;54464;50.558;9.704;2023-11-21T09:43:09;8.50;99.90
27162;DHT22;54464;50.558;9.704;2023-11-21T09:45:45;8.40;99.90
27162;DHT22;54464;50.558;9.704;2023-11-21T09:48:11;8.50;99.90
27162;DHT22;54464;50.558;9.704;2023-11-21T09:50:37;8.70;99.90
27162;DHT22;54464;50.558;9.704;2023-11-21T09:53:20;8.90;99.90
27162;DHT22;54464;50.558;9.704;2023-11-21T09:55:53;8.90;99.90
27162;DHT22;54464;50.558;9.704;2023-11-21T09:58:20;9.20;99.90
27162;DHT22;54464;50.558;9.704;2023-11-21T10:00:53;9.10;99.90
27162;DHT22;54464;50.558;9.704;2023-11-21T10:03:18;9.30;99.90
27162;DHT22;54464;50.558;9.704;2023-11-21T10:05:45;9.30;99.90
27162;DHT22;54464;50.558;9.704;2023-11-21T10:08:15;9.40;99.90
27162;DHT22;54464;50.558;9.704;2023-11-21T10:10:45;9.40;99.90
27162;DHT22;54464;50.558;9.704;2023-11-21T10:13:13;9.60;99.90
27162;DHT22;54464;50.558;9.704;2023-11-21T10:15:42;9.80;99.90
27162;DHT22;54464;50.558;9.704;2023-11-21T10:18:14;9.70;99.90
27162;DHT22;54464;50.558;9.704;2023-11-21T10:20:41;9.80;99.90
27162;DHT22;54464;50.558;9.704;2023-11-21T10:23:07;9.90;99.90
27162;DHT22;54464;50.558;9.704;2023-11-21T10:25:36;9.90;99.90
27162;DHT22;54464;50.558;9.704;2023-11-21T10:28:03;10.00;99.90
27162;DHT22;54464;50.558;9.704;2023-11-21T10:30:34;10.00;99.90
27162;DHT22;54464;50.558;9.704;2023-11-21T10:33:03;10.00;99.90
27162;DHT22;54464;50.558;9.704;2023-11-21T10:35:44;9.90;99.90
27162;DHT22;54464;50.558;9.704;2023-11-21T10:38:16;9.80;99.90
27162;DHT22;54464;50.558;9.704;2023-11-21T10:40:43;9.70;99.90
27162;DHT22;54464;50.558;9.704;2023-11-21T10:43:10;9.30;99.90
27162;DHT22;54464;50.558;9.704;2023-11-21T10:45:37;9.40;99.90
27162;DHT22;54464;50.558;9.704;2023-11-21T10:48:06;9.40;99.90
27162;DHT22;54464;50.558;9.704;2023-11-21T10:50:43;9.30;99.90
27162;DHT22;54464;50.558;9.704;2023-11-21T10:53:09;9.20;99.90
27162;DHT22;54464;50.558;9.704;2023-11-21T10:55:37;9.30;99.90
27162;DHT22;54464;50.558;9.704;2023-11-21T10:58:04;9.10;99.90
27162;DHT22;54464;50.558;9.704;2023-11-21T11:00:32;9.10;99.90
27162;DHT22;54464;50.558;9.704;2023-11-21T11:02:58;9.20;99.90
27162;DHT22;54464;50.558;9.704;2023-11-21T11:05:29;9.30;99.90
27162;DHT22;54464;50.558;9.704;2023-11-21T11:08:02;9.20;99.90
27162;DHT22;54464;50.558;9.704;2023-11-21T11:10:29;9.30;99.90
27162;DHT22;54464;50.558;9.704;2023-11-21T11:12:56;9.20;99.90
27162;DHT22;54464;50.558;9.704;2023-11-21T11:15:23;9.10;99.90
27162;DHT22;54464;50.558;9.704;2023-11-21T11:17:49;9.10;99.90
27162;DHT22;54464;50.558;9.704;2023-11-21T11:20:16;9.20;99.90
27162;DHT22;54464;50.558;9.704;2023-11-21T11:25:45;9.20;99.90
27162;DHT22;54464;50.558;9.704;2023-11-21T11:28:40;9.30;99.90
27162;DHT22;54464;50.558;9.704;2023-11-21T11:31:33;9.40;99.90
27162;DHT22;54464;50.558;9.704;2023-11-21T11:34:29;9.40;99.90
27162;DHT22;54464;50.558;9.704;2023-11-21T11:37:08;9.30;99.90
27162;DHT22;54464;50.558;9.704;2023-11-21T11:39:41;9.20;99.90
27162;DHT22;54464;50.558;9.704;2023-11-21T11:42:12;9.20;99.90
27162;DHT22;54464;50.558;9.704;2023-11-21T11:47:30;9.10;99.90
27162;DHT22;54464;50.558;9.704;2023-11-21T11:50:12;9.00;99.90
27162;DHT22;54464;50.558;9.704;2023-11-21T11:52:52;9.10;99.90
27162;DHT22;54464;50.558;9.704;2023-11-21T11:55:21;9.00;99.90
27162;DHT22;54464;50.558;9.704;2023-11-21T11:57:54;9.00;99.90
27162;DHT22;54464;50.558;9.704;2023-11-21T12:02:54;8.90;99.90
27162;DHT22;54464;50.558;9.704;2023-11-21T12:05:21;9.00;99.90
27162;DHT22;54464;50.558;9.704;2023-11-21T12:07:51;8.80;99.90
27162;DHT22;54464;50.558;9.704;2023-11-21T12:10:29;8.80;99.90
27162;DHT22;54464;50.558;9.704;2023-11-21T12:13:08;8.80;99.90
27162;DHT22;54464;50.558;9.704;2023-11-21T12:15:36;8.90;99.90
27162;DHT22;54464;50.558;9.704;2023-11-21T12:18:02;8.90;99.90
27162;DHT22;54464;50.558;9.704;2023-11-21T12:20:29;8.80;99.90
27162;DHT22;54464;50.558;9.704;2023-11-21T12:22:58;8.70;99.90
27162;DHT22;54464;50.558;9.704;2023-11-21T14:06:25;8.20;99.90
27162;DHT22;54464;50.558;9.704;2023-11-21T14:08:59;8.10;99.90
27162;DHT22;54464;50.558;9.704;2023-11-21T14:11:30;8.10;99.90
27162;DHT22;54464;50.558;9.704;2023-11-21T14:13:56;7.80;99.90
27162;DHT22;54464;50.558;9.704;2023-11-21T14:16:21;8.00;99.90
27162;DHT22;54464;50.558;9.704;2023-11-21T14:18:48;8.00;99.90
27162;DHT22;54464;50.558;9.704;2023-11-21T14:21:27;8.10;99.90
27162;DHT22;54464;50.558;9.704;2023-11-21T14:23:52;8.20;99.90
27162;DHT22;54464;50.558;9.704;2023-11-21T14:26:20;8.20;99.90
27162;DHT22;54464;50.558;9.704;2023-11-21T14:28:46;8.20;99.90
27162;DHT22;54464;50.558;9.704;2023-11-21T14:31:14;7.90;99.90
27162;DHT22;54464;50.558;9.704;2023-11-21T14:33:44;7.80;99.90
27162;DHT22;54464;50.558;9.704;2023-11-21T14:36:09;7.60;99.90
27162;DHT22;54464;50.558;9.704;2023-11-21T14:38:38;7.60;99.90
27162;DHT22;54464;50.558;9.704;2023-11-21T14:41:05;7.70;99.90
27162;DHT22;54464;50.558;9.704;2023-11-21T14:43:36;7.80;99.90
27162;DHT22;54464;50.558;9.704;2023-11-21T14:46:03;7.80;99.90
27162;DHT22;54464;50.558;9.704;2023-11-21T14:48:32;7.70;99.90
27162;DHT22;54464;50.558;9.704;2023-11-21T14:51:13;7.80;99.90
27162;DHT22;54464;50.558;9.704;2023-11-21T14:53:53;7.70;99.90
27162;DHT22;54464;50.558;9.704;2023-11-21T14:56:22;7.80;99.90
27162;DHT22;54464;50.558;9.704;2023-11-21T14:58:58;7.70;99.90
27162;DHT22;54464;50.558;9.704;2023-11-21T15:01:44;7.80;99.90
27162;DHT22;54464;50.558;9.704;2023-11-21T15:04:20;7.90;99.90
27162;DHT22;54464;50.558;9.704;2023-11-21T15:06:57;7.80;99.90
27162;DHT22;54464;50.558;9.704;2023-11-21T15:09:24;7.80;99.90
27162;DHT22;54464;50.558;9.704;2023-11-21T15:12:02;7.90;99.90
27162;DHT22;54464;50.558;9.704;2023-11-21T15:14:50;7.90;99.90
27162;DHT22;54464;50.558;9.704;2023-11-21T15:17:20;7.90;99.90
27162;DHT22;54464;50.558;9.704;2023-11-21T15:19:55;7.90;99.90
27162;DHT22;54464;50.558;9.704;2023-11-21T15:22:21;7.80;99.90
27162;DHT22;54464;50.558;9.704;2023-11-21T15:24:47;7.90;99.90
27162;DHT22;54464;50.558;9.704;2023-11-21T15:27:15;7.90;99.90
27162;DHT22;54464;50.558;9.704;2023-11-21T15:29:41;7.90;99.90
27162;DHT22;54464;50.558;9.704;2023-11-21T15:32:08;8.00;99.90
27162;DHT22;54464;50.558;9.704;2023-11-21T15:34:34;8.00;99.90
27162;DHT22;54464;50.558;9.704;2023-11-21T15:37:00;8.00;99.90
27162;DHT22;54464;50.558;9.704;2023-11-21T15:39:26;8.00;99.90
27162;DHT22;54464;50.558;9.704;2023-11-21T15:41:59;8.00;99.90
27162;DHT22;54464;50.558;9.704;2023-11-21T15:44:25;8.00;99.90
27162;DHT22;54464;50.558;9.704;2023-11-21T15:46:55;8.10;99.90
27162;DHT22;54464;50.558;9.704;2023-11-21T15:49:21;8.10;99.90
27162;DHT22;54464;50.558;9.704;2023-11-21T15:51:48;8.10;99.90
27162;DHT22;54464;50.558;9.704;2023-11-21T15:54:23;8.00;99.90
27162;DHT22;54464;50.558;9.704;2023-11-21T15:56:50;8.10;99.90
27162;DHT22;54464;50.558;9.704;2023-11-21T15:59:17;8.10;99.90
27162;DHT22;54464;50.558;9.704;2023-11-21T16:01:43;8.00;99.90
27162;DHT22;54464;50.558;9.704;2023-11-21T16:04:13;8.10;99.90
27162;DHT22;54464;50.558;9.704;2023-11-21T16:06:42;8.10;99.90
27162;DHT22;54464;50.558;9.704;2023-11-21T16:09:08;8.10;99.90
27162;DHT22;54464;50.558;9.704;2023-11-21T16:11:54;8.10;99.90
27162;DHT22;54464;50.558;9.704;2023-11-21T16:14:25;8.10;99.90
27162;DHT22;54464;50.558;9.704;2023-11-21T16:16:55;8.10;99.90
27162;DHT22;54464;50.558;9.704;2023-11-21T16:19:21;8.00;99.90
27162;DHT22;54464;50.558;9.704;2023-11-21T16:21:47;8.00;99.90
27162;DHT22;54464;50.558;9.704;2023-11-21T16:24:13;8.00;99.90
27162;DHT22;54464;50.558;9.704;2023-11-21T16:26:45;8.00;99.90
27162;DHT22;54464;50.558;9.704;2023-11-21T16:29:11;8.00;99.90
27162;DHT22;54464;50.558;9.704;2023-11-21T16:31:38;7.90;99.90
27162;DHT22;54464;50.558;9.704;2023-11-21T16:34:12;7.90;99.90
27162;DHT22;54464;50.558;9.704;2023-11-21T16:36:41;7.80;99.90
27162;DHT22;54464;50.558;9.704;2023-11-21T16:39:11;7.80;99.90
27162;DHT22;54464;50.558;9.704;2023-11-21T16:41:40;7.70;99.90
27162;DHT22;54464;50.558;9.704;2023-11-21T16:44:11;7.70;99.90
27162;DHT22;54464;50.558;9.704;2023-11-21T16:46:38;7.70;99.90
27162;DHT22;54464;50.558;9.704;2023-11-21T16:49:03;7.70;99.90
27162;DHT22;54464;50.558;9.704;2023-11-21T16:51:29;7.70;99.90
27162;DHT22;54464;50.558;9.704;2023-11-21T16:53:55;7.70;99.90
27162;DHT22;54464;50.558;9.704;2023-11-21T16:56:21;7.60;99.90
27162;DHT22;54464;50.558;9.704;2023-11-21T16:58:46;7.60;99.90
27162;DHT22;54464;50.558;9.704;2023-11-21T17:01:12;7.40;99.90
27162;DHT22;54464;50.558;9.704;2023-11-21T17:03:38;7.40;99.90
27162;DHT22;54464;50.558;9.704;2023-11-21T17:06:04;7.40;99.90
27162;DHT22;54464;50.558;9.704;2023-11-21T17:08:31;7.30;99.90
27162;DHT22;54464;50.558;9.704;2023-11-21T17:10:57;7.20;99.90
27162;DHT22;54464;50.558;9.704;2023-11-21T17:13:22;7.20;99.90
27162;DHT22;54464;50.558;9.704;2023-11-21T17:15:48;7.00;99.90
27162;DHT22;54464;50.558;9.704;2023-11-21T17:18:13;6.90;99.90
27162;DHT22;54464;50.558;9.704;2023-11-21T17:20:39;6.80;99.90
27162;DHT22;54464;50.558;9.704;2023-11-21T17:23:04;6.70;99.90
27162;DHT22;54464;50.558;9.704;2023-11-21T17:25:31;6.60;99.90
27162;DHT22;54464;50.558;9.704;2023-11-21T17:27:57;6.50;99.90
27162;DHT22;54464;50.558;9.704;2023-11-21T17:30:23;6.40;99.90
27162;DHT22;54464;50.558;9.704;2023-11-21T17:32:49;6.40;99.90
27162;DHT22;54464;50.558;9.704;2023-11-21T17:35:14;6.40;99.90
27162;DHT22;54464;50.558;9.704;2023-11-21T17:37:40;6.30;99.90